createdAt,value
2022-08-14T00:00:09.955Z,20.55
2022-08-14T00:01:10.299Z,20.54
2022-08-14T00:02:08.684Z,20.53
2022-08-14T00:03:08.644Z,20.51
2022-08-14T00:04:34.496Z,20.50
2022-08-14T00:05:09.626Z,20.50
2022-08-14T00:06:14.125Z,20.49
2022-08-14T00:07:09.607Z,20.49
2022-08-14T00:08:14.141Z,20.49
2022-08-14T00:09:09.584Z,20.50
2022-08-14T00:10:52.393Z,20.50
2022-08-14T00:11:09.706Z,20.50
2022-08-14T00:12:23.498Z,20.49
2022-08-14T00:13:09.535Z,20.48
2022-08-14T00:14:08.531Z,20.46
2022-08-14T00:15:09.530Z,20.45
2022-08-14T00:16:08.506Z,20.44
2022-08-14T00:17:08.660Z,20.43
2022-08-14T00:18:08.496Z,20.43
2022-08-14T00:19:19.508Z,20.43
2022-08-14T00:20:09.471Z,20.43
2022-08-14T00:21:11.409Z,20.42
2022-08-14T00:22:08.448Z,20.40
2022-08-14T00:23:14.475Z,20.38
2022-08-14T00:24:09.640Z,20.36
2022-08-14T00:25:08.424Z,20.34
2022-08-14T00:26:21.778Z,20.33
2022-08-14T00:27:09.389Z,20.30
2022-08-14T00:28:08.386Z,20.28
2022-08-14T00:29:08.718Z,20.25
2022-08-14T00:30:08.359Z,20.24
2022-08-14T00:31:09.706Z,20.22
2022-08-14T00:32:53.185Z,20.21
2022-08-14T00:33:15.509Z,20.21
2022-08-14T00:34:37.298Z,20.19
2022-08-14T00:35:09.307Z,20.18
2022-08-14T00:36:37.695Z,20.17
2022-08-14T00:37:09.295Z,20.15
2022-08-14T00:38:08.273Z,20.13
2022-08-14T00:39:09.278Z,20.11
2022-08-14T00:40:27.643Z,20.09
2022-08-14T00:41:11.014Z,20.08
2022-08-14T00:42:21.291Z,20.07
2022-08-14T00:43:09.233Z,20.07
2022-08-14T00:44:08.367Z,20.08
2022-08-14T00:45:08.528Z,20.07
2022-08-14T00:46:08.438Z,20.06
2022-08-14T00:47:10.755Z,20.05
2022-08-14T00:48:08.182Z,20.03
2022-08-14T00:49:08.181Z,20.01
2022-08-14T00:50:08.149Z,19.99
2022-08-14T00:51:09.299Z,19.97
2022-08-14T00:52:08.130Z,19.95
2022-08-14T00:53:10.658Z,19.94
2022-08-14T00:54:20.851Z,19.93
2022-08-14T00:55:09.093Z,19.92
2022-08-14T00:56:08.447Z,19.91
2022-08-14T00:57:08.069Z,19.90
2022-08-14T00:58:08.072Z,19.89
2022-08-14T00:59:08.048Z,19.89
2022-08-14T01:00:08.044Z,19.89
2022-08-14T01:01:09.251Z,19.89
2022-08-14T01:02:09.481Z,19.90
2022-08-14T01:03:08.079Z,19.90
2022-08-14T01:04:08.013Z,19.90
2022-08-14T01:05:09.168Z,19.90
2022-08-14T01:06:07.978Z,19.90
2022-08-14T01:07:09.108Z,19.89
2022-08-14T01:08:07.975Z,19.88
2022-08-14T01:09:08.949Z,19.87
2022-08-14T01:10:07.941Z,19.87
2022-08-14T01:11:07.930Z,19.87
2022-08-14T01:12:07.974Z,19.86
2022-08-14T01:13:08.114Z,19.86
2022-08-14T01:14:25.810Z,19.85
2022-08-14T01:15:09.715Z,19.84
2022-08-14T01:16:07.873Z,19.83
2022-08-14T01:17:08.807Z,19.83
2022-08-14T01:18:07.865Z,19.82
2022-08-14T01:19:07.994Z,19.82
2022-08-14T01:20:07.835Z,19.81
2022-08-14T01:21:08.825Z,19.80
2022-08-14T01:22:07.980Z,19.79
2022-08-14T01:23:07.807Z,19.79
2022-08-14T01:24:10.851Z,19.77
2022-08-14T01:25:07.828Z,19.76
2022-08-14T01:26:07.773Z,19.74
2022-08-14T01:27:07.760Z,19.73
2022-08-14T01:28:07.910Z,19.72
2022-08-14T01:29:10.874Z,19.72
2022-08-14T01:30:08.720Z,19.71
2022-08-14T01:31:07.715Z,19.71
2022-08-14T01:32:10.530Z,19.70
2022-08-14T01:33:08.037Z,19.69
2022-08-14T01:35:17.300Z,19.69
2022-08-14T01:35:18.267Z,19.68
2022-08-14T01:36:21.114Z,19.67
2022-08-14T01:37:08.652Z,19.67
2022-08-14T01:38:07.662Z,19.66
2022-08-14T01:39:12.489Z,19.66
2022-08-14T01:40:08.631Z,19.65
2022-08-14T01:41:14.743Z,19.65
2022-08-14T01:42:08.862Z,19.64
2022-08-14T01:43:08.591Z,19.64
2022-08-14T01:44:07.595Z,19.63
2022-08-14T01:45:08.898Z,19.62
2022-08-14T01:46:07.555Z,19.60
2022-08-14T01:47:07.562Z,19.59
2022-08-14T01:48:07.540Z,19.57
2022-08-14T01:49:08.522Z,19.56
2022-08-14T01:50:07.523Z,19.56
2022-08-14T01:51:19.273Z,19.56
2022-08-14T01:52:13.284Z,19.56
2022-08-14T01:53:08.488Z,19.56
2022-08-14T01:54:07.485Z,19.55
2022-08-14T01:55:07.467Z,19.53
2022-08-14T01:56:12.208Z,19.51
2022-08-14T01:57:08.437Z,19.49
2022-08-14T01:58:18.524Z,19.47
2022-08-14T01:59:09.637Z,19.45
2022-08-14T02:00:07.412Z,19.44
2022-08-14T02:01:16.133Z,19.43
2022-08-14T02:02:09.990Z,19.42
2022-08-14T02:03:08.380Z,19.42
2022-08-14T02:04:40.587Z,19.42
2022-08-14T02:05:08.345Z,19.41
2022-08-14T02:06:33.342Z,19.40
2022-08-14T02:07:08.579Z,19.39
2022-08-14T02:08:09.554Z,19.37
2022-08-14T02:09:19.179Z,19.37
2022-08-14T02:10:08.308Z,19.36
2022-08-14T02:11:08.283Z,19.36
2022-08-14T02:12:07.298Z,19.36
2022-08-14T02:13:07.416Z,19.35
2022-08-14T02:14:07.913Z,19.35
2022-08-14T02:15:07.254Z,19.34
2022-08-14T02:16:13.464Z,19.33
2022-08-14T02:17:08.219Z,19.31
2022-08-14T02:18:07.570Z,19.30
2022-08-14T02:19:07.190Z,19.28
2022-08-14T02:20:07.185Z,19.27
2022-08-14T02:21:07.183Z,19.25
2022-08-14T02:22:07.170Z,19.25
2022-08-14T02:23:08.304Z,19.25
2022-08-14T02:24:09.405Z,19.25
2022-08-14T02:25:08.133Z,19.25
2022-08-14T02:26:24.895Z,19.25
2022-08-14T02:28:22.109Z,19.25
2022-08-14T02:28:25.238Z,19.25
2022-08-14T02:29:08.260Z,19.24
2022-08-14T02:30:07.081Z,19.24
2022-08-14T02:31:08.907Z,19.24
2022-08-14T02:32:07.062Z,19.23
2022-08-14T02:33:08.041Z,19.22
2022-08-14T02:34:18.643Z,19.21
2022-08-14T02:35:08.192Z,19.20
2022-08-14T02:37:02.363Z,19.19
2022-08-14T02:37:08.001Z,19.18
2022-08-14T02:38:07.000Z,19.16
2022-08-14T02:39:08.034Z,19.15
2022-08-14T02:40:07.302Z,19.14
2022-08-14T02:41:08.880Z,19.14
2022-08-14T02:42:06.951Z,19.13
2022-08-14T02:43:08.170Z,19.12
2022-08-14T02:44:06.940Z,19.11
2022-08-14T02:45:06.922Z,19.10
2022-08-14T02:46:09.861Z,19.09
2022-08-14T02:47:14.665Z,19.07
2022-08-14T02:48:10.231Z,19.05
2022-08-14T02:49:07.882Z,19.03
2022-08-14T02:50:07.034Z,19.01
2022-08-14T02:51:06.852Z,18.98
2022-08-14T02:52:15.976Z,18.96
2022-08-14T02:53:08.774Z,18.95
2022-08-14T02:54:06.824Z,18.94
2022-08-14T02:55:06.908Z,18.93
2022-08-14T02:56:29.679Z,18.93
2022-08-14T02:57:16.476Z,18.92
2022-08-14T02:58:07.962Z,18.92
2022-08-14T02:59:06.772Z,18.91
2022-08-14T03:00:06.762Z,18.89
2022-08-14T03:01:06.747Z,18.87
2022-08-14T03:02:06.773Z,18.86
2022-08-14T03:03:08.351Z,18.86
2022-08-14T03:04:06.893Z,18.86
2022-08-14T03:05:06.743Z,18.86
2022-08-14T03:06:06.704Z,18.86
2022-08-14T03:07:08.317Z,18.85
2022-08-14T03:08:07.940Z,18.84
2022-08-14T03:09:06.668Z,18.83
2022-08-14T03:10:25.348Z,18.83
2022-08-14T03:11:08.299Z,18.82
2022-08-14T03:12:06.633Z,18.82
2022-08-14T03:13:06.616Z,18.81
2022-08-14T03:14:07.614Z,18.80
2022-08-14T03:15:07.500Z,18.78
2022-08-14T03:16:09.206Z,18.77
2022-08-14T03:17:07.577Z,18.76
2022-08-14T03:18:06.579Z,18.76
2022-08-14T03:19:06.577Z,18.76
2022-08-14T03:20:06.553Z,18.76
2022-08-14T03:21:07.419Z,18.75
2022-08-14T03:22:09.341Z,18.75
2022-08-14T03:23:07.518Z,18.75
2022-08-14T03:24:06.513Z,18.75
2022-08-14T03:25:07.519Z,18.75
2022-08-14T03:26:06.498Z,18.75
2022-08-14T03:27:06.647Z,18.75
2022-08-14T03:28:06.466Z,18.75
2022-08-14T03:29:06.454Z,18.75
2022-08-14T03:30:07.454Z,18.74
2022-08-14T03:31:08.250Z,18.74
2022-08-14T03:32:06.420Z,18.73
2022-08-14T03:33:06.657Z,18.73
2022-08-14T03:34:10.158Z,18.72
2022-08-14T03:35:08.863Z,18.72
2022-08-14T03:37:38.315Z,18.71
2022-08-14T03:37:50.798Z,18.72
2022-08-14T03:39:11.954Z,18.70
2022-08-14T03:39:16.158Z,18.69
2022-08-14T03:40:07.389Z,18.67
2022-08-14T03:41:06.335Z,18.65
2022-08-14T03:42:06.316Z,18.64
2022-08-14T03:43:07.316Z,18.63
2022-08-14T03:45:19.679Z,18.63
2022-08-14T03:45:25.640Z,18.63
2022-08-14T03:46:10.140Z,18.63
2022-08-14T03:47:08.151Z,18.64
2022-08-14T03:48:11.064Z,18.64
2022-08-14T03:49:07.401Z,18.64
2022-08-14T03:50:07.230Z,18.64
2022-08-14T03:51:06.220Z,18.64
2022-08-14T03:52:18.182Z,18.63
2022-08-14T03:53:07.200Z,18.62
2022-08-14T03:54:06.185Z,18.62
2022-08-14T03:55:07.066Z,18.62
2022-08-14T03:56:06.172Z,18.62
2022-08-14T03:57:06.163Z,18.61
2022-08-14T03:58:06.145Z,18.61
2022-08-14T03:59:06.146Z,18.61
2022-08-14T04:00:07.467Z,18.60
2022-08-14T04:01:07.173Z,18.60
2022-08-14T04:02:31.871Z,18.60
2022-08-14T04:03:07.102Z,18.59
2022-08-14T04:04:06.149Z,18.58
2022-08-14T04:05:11.612Z,18.58
2022-08-14T04:06:07.211Z,18.58
2022-08-14T04:07:06.065Z,18.58
2022-08-14T04:08:23.177Z,18.59
2022-08-14T04:09:07.052Z,18.59
2022-08-14T04:10:06.019Z,18.59
2022-08-14T04:11:07.951Z,18.58
2022-08-14T04:12:06.154Z,18.57
2022-08-14T04:13:05.994Z,18.56
2022-08-14T04:14:05.983Z,18.53
2022-08-14T04:15:05.989Z,18.51
2022-08-14T04:16:06.772Z,18.49
2022-08-14T04:17:09.888Z,18.48
2022-08-14T04:18:05.942Z,18.47
2022-08-14T04:19:06.249Z,18.46
2022-08-14T04:20:05.920Z,18.45
2022-08-14T04:21:05.916Z,18.44
2022-08-14T04:22:05.899Z,18.44
2022-08-14T04:23:06.045Z,18.43
2022-08-14T04:24:05.884Z,18.43
2022-08-14T04:25:05.884Z,18.43
2022-08-14T04:26:08.471Z,18.43
2022-08-14T04:27:06.839Z,18.43
2022-08-14T04:28:05.832Z,18.43
2022-08-14T04:29:14.974Z,18.44
2022-08-14T04:30:06.859Z,18.44
2022-08-14T04:31:05.798Z,18.43
2022-08-14T04:32:58.632Z,18.42
2022-08-14T04:33:16.961Z,18.42
2022-08-14T04:34:06.921Z,18.42
2022-08-14T04:35:07.604Z,18.43
2022-08-14T04:36:05.741Z,18.45
2022-08-14T04:37:07.227Z,18.46
2022-08-14T04:38:07.809Z,18.47
2022-08-14T04:39:06.719Z,18.48
2022-08-14T04:40:06.021Z,18.48
2022-08-14T04:41:05.691Z,18.49
2022-08-14T04:42:09.206Z,18.50
2022-08-14T04:43:06.673Z,18.51
2022-08-14T04:44:05.652Z,18.51
2022-08-14T04:45:05.646Z,18.51
2022-08-14T04:46:06.863Z,18.51
2022-08-14T04:47:05.621Z,18.50
2022-08-14T04:48:05.618Z,18.49
2022-08-14T04:49:07.850Z,18.48
2022-08-14T04:50:05.612Z,18.47
2022-08-14T04:51:05.640Z,18.47
2022-08-14T04:52:15.413Z,18.47
2022-08-14T04:53:06.572Z,18.46
2022-08-14T04:54:05.563Z,18.45
2022-08-14T04:55:05.561Z,18.44
2022-08-14T04:56:06.184Z,18.43
2022-08-14T04:57:06.777Z,18.43
2022-08-14T04:58:05.511Z,18.43
2022-08-14T04:59:10.136Z,18.44
2022-08-14T05:00:06.487Z,18.44
2022-08-14T05:01:05.510Z,18.44
2022-08-14T05:02:06.567Z,18.44
2022-08-14T05:03:07.586Z,18.43
2022-08-14T05:04:05.444Z,18.44
2022-08-14T05:05:05.447Z,18.45
2022-08-14T05:06:05.422Z,18.45
2022-08-14T05:07:06.442Z,18.46
2022-08-14T05:08:05.712Z,18.47
2022-08-14T05:09:05.395Z,18.49
2022-08-14T05:10:12.847Z,18.50
2022-08-14T05:11:06.372Z,18.51
2022-08-14T05:13:13.145Z,18.51
2022-08-14T05:13:14.231Z,18.51
2022-08-14T05:14:34.283Z,18.51
2022-08-14T05:15:06.335Z,18.51
2022-08-14T05:16:05.320Z,18.51
2022-08-14T05:17:05.316Z,18.51
2022-08-14T05:18:17.599Z,18.51
2022-08-14T05:19:18.208Z,18.51
2022-08-14T05:21:54.860Z,18.51
2022-08-14T05:21:57.329Z,18.51
2022-08-14T05:22:16.893Z,18.51
2022-08-14T05:23:06.244Z,18.51
2022-08-14T05:24:05.618Z,18.52
2022-08-14T05:25:05.247Z,18.53
2022-08-14T05:26:05.215Z,18.53
2022-08-14T05:27:05.220Z,18.53
2022-08-14T05:28:09.551Z,18.53
2022-08-14T05:29:06.514Z,18.53
2022-08-14T05:30:06.175Z,18.54
2022-08-14T05:31:05.166Z,18.55
2022-08-14T05:32:05.174Z,18.55
2022-08-14T05:33:05.147Z,18.56
2022-08-14T05:34:05.173Z,18.57
2022-08-14T05:35:05.268Z,18.58
2022-08-14T05:36:05.103Z,18.58
2022-08-14T05:37:06.803Z,18.59
2022-08-14T05:38:10.842Z,18.60
2022-08-14T05:39:06.091Z,18.62
2022-08-14T05:40:05.307Z,18.64
2022-08-14T05:41:06.385Z,18.66
2022-08-14T05:42:09.811Z,18.68
2022-08-14T05:43:06.825Z,18.71
2022-08-14T05:44:05.016Z,18.74
2022-08-14T05:45:05.018Z,18.77
2022-08-14T05:46:06.213Z,18.79
2022-08-14T05:47:04.983Z,18.82
2022-08-14T05:48:04.987Z,18.84
2022-08-14T05:49:05.022Z,18.86
2022-08-14T05:50:04.960Z,18.88
2022-08-14T05:51:04.960Z,18.90
2022-08-14T05:52:09.797Z,18.91
2022-08-14T05:53:04.927Z,18.93
2022-08-14T05:54:13.741Z,18.95
2022-08-14T05:55:05.909Z,18.98
2022-08-14T05:56:04.893Z,19.00
2022-08-14T05:57:05.111Z,19.02
2022-08-14T05:58:05.116Z,19.04
2022-08-14T05:59:04.860Z,19.07
2022-08-14T06:00:04.848Z,19.10
2022-08-14T06:01:04.837Z,19.13
2022-08-14T06:02:05.870Z,19.16
2022-08-14T06:03:07.141Z,19.20
2022-08-14T06:04:05.202Z,19.23
2022-08-14T06:05:04.797Z,19.27
2022-08-14T06:06:04.782Z,19.31
2022-08-14T06:07:04.789Z,19.35
2022-08-14T06:08:08.420Z,19.40
2022-08-14T06:09:04.756Z,19.45
2022-08-14T06:10:04.897Z,19.50
2022-08-14T06:11:04.747Z,19.55
2022-08-14T06:12:04.728Z,19.60
2022-08-14T06:13:04.715Z,19.64
2022-08-14T06:14:04.698Z,19.69
2022-08-14T06:15:05.858Z,19.73
2022-08-14T06:16:04.676Z,19.78
2022-08-14T06:17:04.671Z,19.83
2022-08-14T06:18:04.655Z,19.88
2022-08-14T06:19:04.655Z,19.93
2022-08-14T06:20:04.832Z,19.97
2022-08-14T06:21:05.632Z,20.02
2022-08-14T06:22:05.607Z,20.07
2022-08-14T06:23:05.019Z,20.13
2022-08-14T06:24:04.597Z,20.18
2022-08-14T06:25:05.588Z,20.24
2022-08-14T06:26:04.718Z,20.28
2022-08-14T06:27:06.443Z,20.32
2022-08-14T06:28:05.554Z,20.36
2022-08-14T06:29:05.539Z,20.40
2022-08-14T06:30:04.539Z,20.43
2022-08-14T06:31:04.525Z,20.47
2022-08-14T06:32:38.011Z,20.50
2022-08-14T06:33:06.883Z,20.54
2022-08-14T06:35:11.764Z,20.57
2022-08-14T06:35:12.837Z,20.60
2022-08-14T06:36:05.492Z,20.64
2022-08-14T06:37:04.458Z,20.69
2022-08-14T06:38:04.647Z,20.73
2022-08-14T06:39:04.442Z,20.77
2022-08-14T06:40:05.448Z,20.82
2022-08-14T06:41:05.417Z,20.87
2022-08-14T06:42:05.995Z,20.92
2022-08-14T06:43:04.398Z,20.97
2022-08-14T06:44:04.543Z,21.03
2022-08-14T06:45:04.451Z,21.08
2022-08-14T06:46:04.362Z,21.13
2022-08-14T06:47:05.447Z,21.18
2022-08-14T06:48:05.965Z,21.23
2022-08-14T06:49:04.490Z,21.29
2022-08-14T06:50:04.321Z,21.34
2022-08-14T06:51:04.310Z,21.39
2022-08-14T06:52:04.307Z,21.44
2022-08-14T06:53:04.290Z,21.49
2022-08-14T06:54:04.440Z,21.53
2022-08-14T06:55:04.273Z,21.57
2022-08-14T06:56:04.255Z,21.62
2022-08-14T06:57:04.251Z,21.66
2022-08-14T06:58:04.240Z,21.70
2022-08-14T06:59:05.256Z,21.74
2022-08-14T07:00:04.220Z,21.78
2022-08-14T07:01:04.239Z,21.83
2022-08-14T07:02:04.191Z,21.87
2022-08-14T07:03:04.183Z,21.92
2022-08-14T07:04:04.199Z,21.96
2022-08-14T07:05:05.333Z,22.01
2022-08-14T07:06:06.153Z,22.05
2022-08-14T07:07:05.140Z,22.09
2022-08-14T07:08:04.120Z,22.13
2022-08-14T07:09:04.127Z,22.17
2022-08-14T07:10:04.115Z,22.20
2022-08-14T07:11:04.150Z,22.24
2022-08-14T07:12:04.248Z,22.28
2022-08-14T07:13:04.670Z,22.32
2022-08-14T07:14:04.061Z,22.37
2022-08-14T07:15:04.051Z,22.41
2022-08-14T07:16:05.711Z,22.46
2022-08-14T07:17:04.030Z,22.51
2022-08-14T07:18:08.680Z,22.57
2022-08-14T07:19:05.032Z,22.63
2022-08-14T07:20:04.031Z,22.68
2022-08-14T07:21:03.999Z,22.73
2022-08-14T07:22:05.475Z,22.79
2022-08-14T07:23:08.601Z,22.84
2022-08-14T07:24:04.967Z,22.89
2022-08-14T07:25:04.009Z,22.95
2022-08-14T07:26:03.941Z,23.01
2022-08-14T07:27:03.931Z,23.05
2022-08-14T07:28:04.086Z,23.10
2022-08-14T07:29:03.942Z,23.14
2022-08-14T07:30:03.920Z,23.19
2022-08-14T07:31:04.707Z,23.22
2022-08-14T07:32:03.881Z,23.26
2022-08-14T07:33:03.904Z,23.30
2022-08-14T07:34:04.267Z,23.35
2022-08-14T07:35:03.855Z,23.38
2022-08-14T07:36:03.840Z,23.41
2022-08-14T07:37:04.833Z,23.44
2022-08-14T07:38:03.834Z,23.48
2022-08-14T07:39:12.174Z,23.52
2022-08-14T07:40:05.008Z,23.57
2022-08-14T07:41:03.784Z,23.62
2022-08-14T07:42:04.784Z,23.67
2022-08-14T07:43:14.734Z,23.71
2022-08-14T07:44:31.987Z,23.75
2022-08-14T07:45:04.748Z,23.80
2022-08-14T07:46:03.913Z,23.86
2022-08-14T07:47:03.848Z,23.92
2022-08-14T07:48:03.714Z,23.98
2022-08-14T07:49:03.714Z,24.04
2022-08-14T07:50:03.703Z,24.12
2022-08-14T07:51:10.736Z,24.20
2022-08-14T07:52:04.665Z,24.27
2022-08-14T07:53:03.662Z,24.33
2022-08-14T07:54:03.688Z,24.40
2022-08-14T07:55:03.636Z,24.47
2022-08-14T07:56:21.999Z,24.54
2022-08-14T07:57:11.829Z,24.60
2022-08-14T07:58:05.851Z,24.66
2022-08-14T07:59:04.589Z,24.73
2022-08-14T08:00:03.594Z,24.78
2022-08-14T08:01:03.570Z,24.83
2022-08-14T08:02:03.718Z,24.86
2022-08-14T08:03:03.594Z,24.88
2022-08-14T08:04:03.545Z,24.90
2022-08-14T08:05:03.529Z,24.93
2022-08-14T08:06:03.525Z,24.96
2022-08-14T08:07:05.557Z,24.98
2022-08-14T08:08:03.516Z,24.99
2022-08-14T08:09:03.629Z,25.01
2022-08-14T08:10:03.482Z,25.04
2022-08-14T08:11:03.825Z,25.05
2022-08-14T08:12:09.146Z,25.07
2022-08-14T08:13:03.452Z,25.10
2022-08-14T08:14:03.437Z,25.12
2022-08-14T08:15:07.199Z,25.15
2022-08-14T08:16:03.413Z,25.19
2022-08-14T08:17:03.408Z,25.25
2022-08-14T08:18:03.960Z,25.31
2022-08-14T08:19:10.040Z,25.36
2022-08-14T08:20:04.373Z,25.41
2022-08-14T08:21:03.356Z,25.43
2022-08-14T08:22:03.356Z,25.48
2022-08-14T08:23:06.505Z,25.54
2022-08-14T08:24:03.671Z,25.62
2022-08-14T08:25:03.328Z,25.70
2022-08-14T08:26:03.339Z,25.79
2022-08-14T08:27:03.288Z,25.88
2022-08-14T08:28:08.015Z,25.99
2022-08-14T08:29:04.268Z,26.09
2022-08-14T08:30:03.416Z,26.18
2022-08-14T08:31:03.246Z,26.26
2022-08-14T08:32:06.186Z,26.33
2022-08-14T08:33:03.237Z,26.39
2022-08-14T08:34:03.216Z,26.41
2022-08-14T08:35:03.223Z,26.42
2022-08-14T08:36:03.531Z,26.41
2022-08-14T08:37:07.275Z,26.39
2022-08-14T08:38:14.352Z,26.35
2022-08-14T08:39:15.583Z,26.31
2022-08-14T08:40:06.024Z,26.28
2022-08-14T08:41:03.144Z,26.26
2022-08-14T08:42:03.340Z,26.26
2022-08-14T08:43:03.119Z,26.27
2022-08-14T08:44:03.115Z,26.29
2022-08-14T08:45:03.097Z,26.32
2022-08-14T08:46:03.089Z,26.35
2022-08-14T08:47:03.649Z,26.38
2022-08-14T08:48:03.230Z,26.42
2022-08-14T08:49:36.310Z,27.55
2022-08-14T08:51:09.191Z,27.59
2022-08-14T08:52:15.206Z,27.19
2022-08-14T08:53:09.832Z,26.92
2022-08-14T08:54:11.923Z,26.76
2022-08-14T08:55:10.801Z,26.67
2022-08-14T08:56:08.821Z,26.63
2022-08-14T08:57:08.982Z,26.59
2022-08-14T08:58:12.396Z,26.57
2022-08-14T08:59:09.776Z,26.55
2022-08-14T09:00:10.027Z,26.54
2022-08-14T09:01:09.774Z,26.51
2022-08-14T09:02:10.244Z,26.47
2022-08-14T09:03:09.944Z,26.43
2022-08-14T09:04:14.806Z,26.40
2022-08-14T09:05:09.693Z,26.39
2022-08-14T09:06:52.282Z,26.39
2022-08-14T09:07:11.299Z,26.40
2022-08-14T09:08:08.671Z,26.43
2022-08-14T09:09:09.823Z,26.45
2022-08-14T09:10:08.648Z,26.47
2022-08-14T09:11:19.857Z,26.48
2022-08-14T09:12:13.850Z,26.49
2022-08-14T09:13:09.614Z,26.49
2022-08-14T09:14:08.602Z,26.48
2022-08-14T09:15:11.345Z,26.45
2022-08-14T09:16:19.024Z,26.42
2022-08-14T09:17:09.572Z,26.40
2022-08-14T09:18:08.565Z,26.38
2022-08-14T09:19:08.557Z,26.39
2022-08-14T09:20:08.545Z,26.42
2022-08-14T09:21:08.734Z,26.44
2022-08-14T09:22:35.509Z,26.47
2022-08-14T09:23:09.504Z,26.50
2022-08-14T09:24:28.221Z,26.54
2022-08-14T09:25:09.486Z,26.57
2022-08-14T09:26:21.325Z,26.58
2022-08-14T09:27:09.656Z,26.59
2022-08-14T09:28:09.459Z,26.60
2022-08-14T09:29:08.438Z,26.62
2022-08-14T09:30:30.661Z,26.64
2022-08-14T09:31:17.374Z,26.67
2022-08-14T09:32:57.713Z,26.72
2022-08-14T09:33:12.720Z,26.76
2022-08-14T09:34:09.438Z,26.78
2022-08-14T09:35:09.375Z,26.79
2022-08-14T09:36:08.365Z,26.79
2022-08-14T09:37:08.352Z,26.80
2022-08-14T09:38:19.470Z,26.82
2022-08-14T09:39:14.737Z,26.86
2022-08-14T09:40:10.130Z,26.91
2022-08-14T09:41:08.314Z,26.97
2022-08-14T09:42:20.120Z,27.01
2022-08-14T09:43:09.297Z,27.08
2022-08-14T09:44:08.284Z,27.14
2022-08-14T09:45:09.169Z,27.17
2022-08-14T09:46:08.275Z,27.19
2022-08-14T09:47:08.246Z,27.20
2022-08-14T09:48:08.236Z,27.21
2022-08-14T09:49:16.304Z,27.24
2022-08-14T09:50:09.398Z,27.29
2022-08-14T09:51:44.980Z,28.51
2022-08-14T09:52:44.036Z,28.11
2022-08-14T09:54:19.693Z,27.83
2022-08-14T09:54:41.135Z,27.68
2022-08-14T09:55:41.862Z,27.63
2022-08-14T09:56:40.074Z,27.61
2022-08-14T09:57:40.120Z,27.61
2022-08-14T09:58:40.046Z,27.62
2022-08-14T09:59:40.044Z,27.63
2022-08-14T10:00:40.037Z,27.64
2022-08-14T10:01:40.074Z,27.66
2022-08-14T10:02:46.185Z,27.72
2022-08-14T10:03:41.067Z,27.75
2022-08-14T10:04:46.196Z,27.73
2022-08-14T10:05:40.984Z,27.69
2022-08-14T10:06:39.961Z,27.65
2022-08-14T10:07:41.208Z,27.64
2022-08-14T10:08:40.948Z,27.65
2022-08-14T10:09:39.944Z,27.68
2022-08-14T10:10:39.916Z,27.75
2022-08-14T10:11:41.047Z,27.85
2022-08-14T10:12:40.118Z,27.95
2022-08-14T10:13:52.858Z,28.02
2022-08-14T10:14:40.882Z,28.08
2022-08-14T10:15:39.867Z,28.12
2022-08-14T10:16:39.860Z,28.16
2022-08-14T10:17:39.855Z,28.17
2022-08-14T10:18:40.086Z,28.17
2022-08-14T10:19:39.828Z,28.17
2022-08-14T10:20:42.523Z,28.18
2022-08-14T10:21:58.262Z,28.19
2022-08-14T10:23:12.223Z,28.20
2022-08-14T10:23:40.978Z,28.22
2022-08-14T10:24:39.766Z,28.23
2022-08-14T10:25:39.759Z,28.26
2022-08-14T10:26:39.737Z,28.29
2022-08-14T10:27:39.754Z,28.31
2022-08-14T10:29:14.087Z,28.30
2022-08-14T10:29:40.896Z,28.27
2022-08-14T10:30:39.702Z,28.23
2022-08-14T10:31:44.624Z,28.19
2022-08-14T10:32:51.864Z,28.16
2022-08-14T10:33:40.670Z,28.14
2022-08-14T10:34:40.869Z,28.15
2022-08-14T10:35:39.826Z,28.17
2022-08-14T10:36:41.155Z,28.19
2022-08-14T10:37:40.639Z,28.18
2022-08-14T10:38:39.619Z,28.17
2022-08-14T10:39:41.804Z,28.16
2022-08-14T10:40:44.581Z,28.16
2022-08-14T10:41:46.485Z,28.15
2022-08-14T10:42:40.617Z,28.18
2022-08-14T10:43:39.577Z,28.25
2022-08-14T10:44:39.560Z,28.32
2022-08-14T10:45:42.029Z,28.37
2022-08-14T10:47:37.285Z,28.41
2022-08-14T10:48:09.698Z,28.46
2022-08-14T10:48:43.389Z,28.53
2022-08-14T10:49:40.503Z,28.58
2022-08-14T10:50:39.512Z,28.61
2022-08-14T10:51:39.833Z,28.63
2022-08-14T10:52:42.278Z,28.64
2022-08-14T10:53:40.223Z,28.65
2022-08-14T10:54:40.236Z,28.65
2022-08-14T10:55:39.442Z,28.67
2022-08-14T10:56:40.443Z,28.70
2022-08-14T10:57:39.428Z,28.72
2022-08-14T10:58:39.763Z,28.73
2022-08-14T10:59:43.167Z,28.73
2022-08-14T11:00:39.382Z,28.72
2022-08-14T11:01:41.232Z,28.71
2022-08-14T11:02:54.206Z,28.69
2022-08-14T11:03:56.098Z,28.67
2022-08-14T11:04:40.402Z,28.64
2022-08-14T11:05:39.323Z,28.62
2022-08-14T11:06:39.315Z,28.59
2022-08-14T11:07:39.315Z,28.57
2022-08-14T11:08:39.295Z,28.56
2022-08-14T11:09:41.966Z,28.56
2022-08-14T11:10:39.287Z,28.57
2022-08-14T11:11:39.276Z,28.59
2022-08-14T11:12:40.745Z,28.61
2022-08-14T11:13:39.272Z,28.63
2022-08-14T11:14:39.251Z,28.64
2022-08-14T11:15:39.432Z,28.65
2022-08-14T11:16:39.215Z,28.69
2022-08-14T11:17:39.208Z,28.74
2022-08-14T11:18:40.674Z,28.76
2022-08-14T11:19:39.199Z,28.76
2022-08-14T11:20:39.165Z,28.74
2022-08-14T11:21:39.337Z,28.71
2022-08-14T11:22:56.369Z,28.70
2022-08-14T11:23:41.102Z,28.72
2022-08-14T11:24:54.783Z,28.77
2022-08-14T11:25:43.742Z,28.82
2022-08-14T11:26:39.192Z,28.87
2022-08-14T11:27:39.293Z,28.91
2022-08-14T11:28:47.187Z,28.94
2022-08-14T11:29:40.277Z,28.97
2022-08-14T11:30:51.225Z,28.99
2022-08-14T11:31:40.089Z,29.01
2022-08-14T11:32:39.304Z,29.00
2022-08-14T11:33:39.072Z,28.97
2022-08-14T11:34:39.038Z,28.92
2022-08-14T11:35:47.662Z,28.88
2022-08-14T11:37:04.526Z,28.86
2022-08-14T11:37:40.232Z,28.87
2022-08-14T11:38:38.979Z,28.86
2022-08-14T11:39:39.991Z,28.85
2022-08-14T11:40:38.977Z,28.83
2022-08-14T11:41:46.538Z,28.81
2022-08-14T11:42:56.299Z,28.80
2022-08-14T11:43:39.927Z,28.79
2022-08-14T11:44:45.935Z,28.78
2022-08-14T11:45:39.907Z,28.77
2022-08-14T11:46:38.902Z,28.77
2022-08-14T11:48:11.190Z,28.78
2022-08-14T11:49:03.016Z,28.78
2022-08-14T11:49:39.858Z,28.79
2022-08-14T11:50:38.861Z,28.80
2022-08-14T11:51:52.891Z,28.81
2022-08-14T11:52:40.396Z,28.81
2022-08-14T11:53:42.334Z,28.80
2022-08-14T11:54:38.989Z,28.80
2022-08-14T11:55:39.527Z,28.81
2022-08-14T11:56:38.788Z,28.83
2022-08-14T11:57:39.532Z,28.87
2022-08-14T11:58:38.780Z,28.91
2022-08-14T11:59:44.253Z,28.93
2022-08-14T12:00:40.197Z,28.94
2022-08-14T12:01:41.247Z,28.93
2022-08-14T12:03:01.213Z,28.94
2022-08-14T12:03:52.440Z,28.97
2022-08-14T12:04:39.729Z,29.00
2022-08-14T12:05:38.702Z,29.02
2022-08-14T12:06:39.636Z,29.02
2022-08-14T12:07:42.957Z,29.02
2022-08-14T12:08:39.868Z,29.01
2022-08-14T12:09:43.120Z,29.02
2022-08-14T12:10:42.397Z,29.06
2022-08-14T12:11:44.344Z,29.10
2022-08-14T12:12:42.238Z,29.12
2022-08-14T12:13:38.612Z,29.13
2022-08-14T12:14:42.722Z,29.16
2022-08-14T12:15:44.674Z,29.23
2022-08-14T12:16:39.586Z,29.30
2022-08-14T12:17:47.534Z,29.37
2022-08-14T12:18:39.566Z,29.41
2022-08-14T12:19:38.542Z,29.44
2022-08-14T12:20:45.658Z,29.45
2022-08-14T12:21:39.536Z,29.45
2022-08-14T12:22:40.068Z,29.46
2022-08-14T12:23:38.504Z,29.48
2022-08-14T12:24:40.103Z,29.50
2022-08-14T12:25:39.202Z,29.49
2022-08-14T12:26:41.020Z,29.48
2022-08-14T12:27:41.993Z,29.46
2022-08-14T12:28:59.780Z,29.43
2022-08-14T12:29:40.008Z,29.41
2022-08-14T12:30:43.042Z,29.38
2022-08-14T12:31:44.853Z,29.35
2022-08-14T12:32:39.410Z,29.32
2022-08-14T12:33:38.394Z,29.29
2022-08-14T12:34:39.385Z,29.26
2022-08-14T12:35:39.544Z,29.25
2022-08-14T12:36:38.364Z,29.26
2022-08-14T12:37:38.524Z,29.31
2022-08-14T12:38:38.542Z,29.36
2022-08-14T12:39:40.163Z,29.37
2022-08-14T12:40:38.328Z,29.36
2022-08-14T12:41:38.316Z,29.34
2022-08-14T12:42:41.779Z,29.32
2022-08-14T12:43:39.535Z,29.30
2022-08-14T12:44:38.294Z,29.28
2022-08-14T12:45:38.268Z,29.26
2022-08-14T12:46:38.261Z,29.25
2022-08-14T12:47:38.254Z,29.25
2022-08-14T12:48:38.237Z,29.27
2022-08-14T12:49:38.397Z,29.34
2022-08-14T12:50:38.222Z,29.42
2022-08-14T12:51:38.206Z,29.48
2022-08-14T12:52:54.072Z,29.52
2022-08-14T12:53:39.191Z,29.54